Goldin Financial Limited 高銀融資有限公司

start date:
end date:
Performance period years

Role: Independent Financial Adviser (Listing Rules)

This is a one-time role. Returns are from the appointment date to the earliest of the end of the specified performance period and the last trading date. CAGR is the annualised return and is not shown for periods under 180 days. Relative returns are to the Tracker Fund of HK (2800), starting from the latest of 12-Nov-1999, the appointment date and the chosen start date.

Some data are hidden to fit your display. Rotate?

Client Added Total
return
CAGR
total
return
CAGR
relative
return
1 China Graphene Group Limited 2009-12-24 -19.53% -19.55% -26.16%
2 Asia Television Holdings Limited 2010-01-27 -38.95% -38.97% -49.81%
3 Longrun Tea Group Company Limited 2010-02-01 -13.51% -13.52% -27.27%
4 KING STONE ENERGY GROUP LIMITED 2010-03-08 -3.28% -3.28% -15.76%
5 SHANGHAI ZENDAI PROPERTY LIMITED 2010-05-26 -25.75% -25.76% -38.95%
6 Beijing Enterprises Medical and Health Industry Group Limited 2010-07-02 -3.25% -3.26% -16.46%
7 LUOYANG GLASS COMPANY LIMITED 2010-07-02 62.77% 63.26% 40.99%
8 Dejin Resources Group Company Limited 2010-08-27 -75.69% -75.80% -75.22%
9 New Silkroad Culturaltainment Limited 2010-09-17 -5.70% -5.72% 3.23%
10 SMI Holdings Group Limited 2010-11-29 -40.00% -40.02% -26.04%
11 SMI Holdings Group Limited 2011-01-18 -39.24% -39.26% -27.79%
12 China Ruifeng Renewable Energy Holdings Limited 2011-02-14 6.06% 6.06% 13.43%
13 CHINA SOLAR ENERGY HOLDINGS LIMITED 2011-03-10 -65.67% -65.70% -62.88%
14 Longrun Tea Group Company Limited 2011-03-28 -42.74% -42.76% -39.37%
15 LUOYANG GLASS COMPANY LIMITED 2011-06-02 -55.83% -55.85% -46.67%
16 Huayu Expressway Group Limited 2011-06-24 -39.10% -39.20% -31.67%
17 Shanghai Prime Machinery Company Limited 2011-09-02 -27.13% -27.21% -27.15%
18 Capital Environment Holdings Limited 2011-09-15 1.32% 1.32% -8.50%
19 LUOYANG GLASS COMPANY LIMITED 2011-11-08 -2.92% -2.93% -16.40%
20 Hanergy Thin Film Power Group Limited 2011-11-14 -22.39% -22.40% -30.69%
21 AVIC International Holding (HK) Limited 2011-12-07 9.80% 9.81% -8.06%
22 Capital Environment Holdings Limited 2011-12-31 22.03% 22.05% -4.20%
23 Shanghai Electric Group Company Limited 2012-01-04 -0.41% -0.41% -22.48%
24 Anxian Yuan China Holdings Limited 2012-03-06 -9.35% -9.35% -19.55%
25 Sustainable Forest Holdings Limited 2012-03-21 -67.09% -67.11% -70.02%
26 Hanergy Thin Film Power Group Limited 2012-05-18 168.42% 170.07% 115.37%
27 China Sanjiang Fine Chemicals Company Limited 2012-06-11 99.08% 99.17% 72.14%
28 New Silkroad Culturaltainment Limited 2012-08-06 51.16% 53.35% 35.27%
29 Shanghai Electric Group Company Limited 2012-08-13 -9.57% -9.57% -21.95%
30 LUOYANG GLASS COMPANY LIMITED 2012-09-12 2.03% 2.03% -13.17%
31 Kingsoft Corporation Limited 2012-09-29 304.03% 304.42% 252.15%
32 Hanergy Thin Film Power Group Limited 2012-10-04 485.71% 486.42% 413.97%
33 BII Railway Transportation Technology Holdings Company Limited 2012-10-26 5.07% 5.09% -3.30%
34 AUTOMATED SYSTEMS HOLDINGS LIMITED 2012-12-05 3.09% 3.09% -5.91%
35 China All Access (Holdings) Limited 2012-12-14 57.69% 57.93% 49.18%
36 Evershine Group Holdings Limited 2012-12-17 121.74% 121.86% 110.01%
37 COSMOPOLITAN INTERNATIONAL HOLDINGS LIMITED 2012-12-18 83.08% 83.15% 72.62%
38 China Sanjiang Fine Chemicals Company Limited 2012-12-28 33.29% 33.31% 25.94%
39 Zhongchang International Holdings Group Limited 2013-01-08 127.94% 128.07% 121.60%
40 Longrun Tea Group Company Limited 2013-03-15 22.39% 22.47% 23.64%
41 Evershine Group Holdings Limited 2013-03-19 34.39% 34.41% 32.41%
42 Rich Goldman Holdings Limited 2013-04-17 68.35% 68.41% 54.77%
43 Great China Properties Holdings Limited 2013-05-21 0.00% 0.00% -1.18%
44 BII Railway Transportation Technology Holdings Company Limited 2013-07-17 124.32% 124.45% 96.93%
45 Great China Properties Holdings Limited 2013-07-26 -13.43% -13.48% -24.23%
46 China All Access (Holdings) Limited 2013-08-08 31.64% 31.66% 13.36%
47 Evershine Group Holdings Limited 2013-08-08 -13.30% -13.31% -25.36%
48 Crown International Corporation Limited 2013-08-13 250.00% 250.30% 206.46%
49 BII Railway Transportation Technology Holdings Company Limited 2013-08-30 82.76% 83.14% 54.86%
50 Prosperity Investment Holdings Limited 2013-09-27 31.46% 31.58% 24.15%
51 Hanergy Thin Film Power Group Limited 2013-10-25 24.69% 24.79% 17.20%
52 CGN Mining Company Limited 2013-11-19 31.88% 31.91% 28.72%
53 Shanghai Electric Group Company Limited 2013-11-21 60.43% 60.48% 55.29%
54 Peace Map Holding Limited 2013-11-25 -5.00% -5.00% -8.84%
55 Hanergy Thin Film Power Group Limited 2013-12-12 117.67% 117.79% 109.85%
56 Hanergy Thin Film Power Group Limited 2014-01-06 168.69% 169.61% 147.90%
57 Shanghai Electric Group Company Limited 2014-01-10 71.71% 72.03% 58.18%
58 Merdeka Financial Services Group Limited 2014-01-13 -81.24% -81.27% -82.94%
59 CGN Mining Company Limited 2014-02-28 5.88% 5.90% -6.33%
60 Dejin Resources Group Company Limited 2014-03-13 -31.75%
61 CWT International Limited 2014-03-26 6.41% 6.41% -8.39%
62 China Conch Venture Holdings Limited 2014-04-29 14.47% 14.48% -12.58%
63 LUOYANG GLASS COMPANY LIMITED 2014-05-14 168.67% 168.85% 115.39%
64 Merdeka Financial Services Group Limited 2014-05-28 -19.86% -19.88% -36.19%
65 China Green (Holdings) Limited 2014-06-06 113.01% 113.56% 74.80%
66 AviChina Industry & Technology Company Limited 2014-06-10 95.86% 95.95% 65.84%
67 Polyard Petroleum International Group Limited 2014-06-10 125.00% 125.13% 90.53%
68 COSMOPOLITAN INTERNATIONAL HOLDINGS LIMITED 2014-06-20 143.92% 144.67% 106.70%
69 CWT International Limited 2014-07-07 20.69% 20.71% 10.67%
70 BII Railway Transportation Technology Holdings Company Limited 2014-08-08 39.10% 39.26% 34.25%
71 U Banquet Group Holding Limited 2014-08-18 -10.11% -10.12% -7.40%
72 Honbridge Holdings Limited 2014-09-01 -35.90% -35.92% -27.58%
73 Merdeka Financial Services Group Limited 2014-09-03 -0.08% -0.08% 16.92%
74 CGN Mining Company Limited 2014-09-29 -35.63% -35.65% -29.66%
75 Smartac Group China Holdings Limited 2014-09-29 24.00% 24.02% 35.57%
76 FIRST TRACTOR COMPANY LIMITED 2014-10-16 1.68% 1.69% -2.18%
77 Town Health International Medical Group Limited 2014-11-19 28.43% 28.45% 29.19%
78 Longrun Tea Group Company Limited 2014-11-28 -3.17% -3.19% 1.66%
79 LUOYANG GLASS COMPANY LIMITED 2014-12-15 55.62% 56.05% 64.34%
80 Panda Green Energy Group Limited 2015-01-12 -33.33% -33.35% -21.26%
81 Smartac Group China Holdings Limited 2015-01-20 -35.69% -35.71% -21.02%
82 Town Health International Medical Group Limited 2015-02-03 -6.83% -6.84% 16.20%
83 AVIC Joy Holdings (HK) Limited 2015-02-09 -36.42% -36.76% -22.08%
84 Panda Green Energy Group Limited 2015-02-27 -37.23% -37.33% -22.23%
85 China Sanjiang Fine Chemicals Company Limited 2015-03-04 -54.35% -54.37% -46.00%
86 Shanghai Electric Group Company Limited 2015-04-14 -48.75% -48.77% -35.45%
87 China Sanjiang Fine Chemicals Company Limited 2015-04-28 -54.63% -54.65% -41.43%
88 FDG Kinetic Limited 2015-07-06 -23.57% -23.58% -10.37%
89 Xi'an Haitian Antenna Technologies Co., Ltd. 2015-07-06 -46.15% -46.18% -36.87%
90 Xiezhong International Holdings Limited 2015-07-06 -5.49% -5.49% 10.84%
91 Panda Green Energy Group Limited 2015-07-08 -12.31% -12.32% -3.90%
92 FAR EAST HOTELS AND ENTERTAINMENT LIMITED 2015-07-22 -54.71% -54.73% -49.75%
93 BII Railway Transportation Technology Holdings Company Limited 2015-07-27 -36.74% -36.76% -32.98%
94 LUOYANG GLASS COMPANY LIMITED 2015-08-10 -26.71% -26.72% -23.05%
95 China First Capital Group Limited 2015-09-14 225.00% 225.26% 192.67%
96 Merdeka Financial Services Group Limited 2015-09-15 -42.70% -42.72% -48.82%
97 China Sanjiang Fine Chemicals Company Limited 2015-10-22 65.11% 65.40% 56.48%
98 Longrun Tea Group Company Limited 2015-10-27 -10.77% -10.78% -14.32%
99 China Chuanglian Education Financial Group Limited 2015-11-30 -21.50% -21.51% -26.44%
100 New Silkroad Culturaltainment Limited 2015-12-04 -6.41% -6.43% -10.75%
101 hmvod Limited 2016-01-12 191.14% 191.35% 142.60%
102 Panda Green Energy Group Limited 2016-01-25 24.14% 24.16% 1.51%
103 Union Asia Enterprise Holdings Limited 2016-03-11 -67.52% -67.64% -73.13%
104 Tongfang Kontafarma Holdings Limited 2016-03-22 -28.95% -28.96% -41.67%
105 LUOYANG GLASS COMPANY LIMITED 2016-03-30 26.13% 26.15% 4.83%
106 China Chuanglian Education Financial Group Limited 2016-04-18 -31.96% -31.98% -41.60%
107 Longrun Tea Group Company Limited 2016-05-17 35.09% 35.12% 3.70%
108 Grand Peace Group Holdings Limited 2016-05-18 243.36% 243.65% 161.37%
109 BII Railway Transportation Technology Holdings Company Limited 2016-06-01 20.83% 20.85% -5.53%
110 Honbridge Holdings Limited 2016-07-11 51.79% 51.83% 18.44%
111 BII Railway Transportation Technology Holdings Company Limited 2016-10-14 -42.58% -42.69% -54.75%
112 FAR EAST HOTELS AND ENTERTAINMENT LIMITED 2016-11-10 0.00% 0.00% -24.03%
113 Panda Green Energy Group Limited 2016-11-10 68.66% 68.72% 28.17%
114 China Binary New Fintech Group 2016-11-25 -32.93% -33.02% -50.67%
115 AVIC Joy Holdings (HK) Limited 2016-12-07 -40.13% -40.15% -53.28%
116 Shanghai Electric Group Company Limited 2016-12-12 -9.77% -9.78% -32.14%
117 Synertone Communication Corporation 2016-12-28 -42.94% -42.97% -59.89%
118 Merdeka Financial Services Group Limited 2017-02-20 -29.57% -29.58% -46.58%
119 FDG Electric Vehicles Limited 2017-05-19 -51.76% -51.89% -62.21%
120 INNO-TECH HOLDINGS LIMITED 2017-05-23 -73.08% -73.10% -78.41%
121 Xiezhong International Holdings Limited 2017-05-29 3.36% 3.36% -15.81%
122 Kirin Group Holdings Limited 2017-06-16 -81.12% -81.22% -84.64%
123 China Chuanglian Education Financial Group Limited 2017-10-19 -56.40% -56.42% -53.58%
124 FDG Electric Vehicles Limited 2017-10-20 -79.19% -79.30% -77.72%
125 Eagle Legend Asia Limited 2017-10-31 -13.83% -13.84% -5.66%
126 TC Orient Lighting Holdings Limited 2017-10-31 -69.31% -69.33% -66.42%
127 Vestate Group Holdings Limited 2017-10-31 -8.66% -8.67% 0.00%
128 Panda Green Energy Group Limited 2017-11-20 -71.15% -71.18% -68.69%
129 New Silkroad Culturaltainment Limited 2017-11-30 -28.57% -28.59% -24.06%
130 Tongfang Kontafarma Holdings Limited 2018-02-27 -33.33% -33.35% -30.22%
131 Chinese Food and Beverage Group Limited 2018-02-28 -33.33% -33.35% -30.86%
132 Chinese Food and Beverage Group Limited 2018-03-28 -6.25% -6.25% -5.58%
133 LUOYANG GLASS COMPANY LIMITED 2018-04-13 -28.23% -28.31% -28.72%
134 Amax International Holdings Limited 2018-05-31 -76.60% -76.63% -74.49%
135 Honbridge Holdings Limited 2018-06-13 -54.61% -54.63% -50.90%
136 Vision International Holdings Limited 2018-09-21 -9.17% -9.98% -6.99%
137 Shanghai Electric Group Company Limited 2018-10-02 -10.38% -11.66% -11.66%
138 XINYI SOLAR HOLDINGS LIMITED 2018-11-02 85.78% 117.01% 111.66%
Average 15.74% 6.63%


Sign up for our free newsletter

Recommend Webb-site to a friend

Copyright & disclaimer, Privacy policy

Back to top